sensor_id;sensor_type;location;lat;lon;timestamp;temperature;humidity
33715;DHT22;20043;50.998;4.754;2023-02-26T00:01:31;2.10;99.90
33715;DHT22;20043;50.998;4.754;2023-02-26T00:04:00;2.10;99.90
33715;DHT22;20043;50.998;4.754;2023-02-26T00:06:27;2.20;99.90
33715;DHT22;20043;50.998;4.754;2023-02-26T00:08:53;2.20;99.90
33715;DHT22;20043;50.998;4.754;2023-02-26T00:11:19;2.20;99.90
33715;DHT22;20043;50.998;4.754;2023-02-26T00:13:46;2.00;99.90
33715;DHT22;20043;50.998;4.754;2023-02-26T00:16:34;2.00;99.90
33715;DHT22;20043;50.998;4.754;2023-02-26T00:19:03;2.00;99.90
33715;DHT22;20043;50.998;4.754;2023-02-26T00:21:29;2.00;99.90
33715;DHT22;20043;50.998;4.754;2023-02-26T00:23:55;2.00;99.90
33715;DHT22;20043;50.998;4.754;2023-02-26T00:26:24;2.00;99.90
33715;DHT22;20043;50.998;4.754;2023-02-26T00:28:50;2.00;99.90
33715;DHT22;20043;50.998;4.754;2023-02-26T00:31:17;2.00;99.90
33715;DHT22;20043;50.998;4.754;2023-02-26T00:33:45;2.00;99.90
33715;DHT22;20043;50.998;4.754;2023-02-26T00:41:37;1.90;99.90
33715;DHT22;20043;50.998;4.754;2023-02-26T00:44:03;1.90;99.90
33715;DHT22;20043;50.998;4.754;2023-02-26T00:51:55;1.80;99.90
33715;DHT22;20043;50.998;4.754;2023-02-26T00:54:23;1.90;99.90
33715;DHT22;20043;50.998;4.754;2023-02-26T00:56:50;1.90;99.90
33715;DHT22;20043;50.998;4.754;2023-02-26T00:59:17;1.90;99.90
33715;DHT22;20043;50.998;4.754;2023-02-26T01:01:43;1.80;99.90
33715;DHT22;20043;50.998;4.754;2023-02-26T01:04:10;1.70;99.90
33715;DHT22;20043;50.998;4.754;2023-02-26T01:06:44;1.70;99.90
33715;DHT22;20043;50.998;4.754;2023-02-26T01:11:50;1.70;99.90
33715;DHT22;20043;50.998;4.754;2023-02-26T01:14:16;1.80;99.90
33715;DHT22;20043;50.998;4.754;2023-02-26T01:19:50;1.80;99.90
33715;DHT22;20043;50.998;4.754;2023-02-26T01:22:24;1.60;99.90
33715;DHT22;20043;50.998;4.754;2023-02-26T01:25:01;1.60;99.90
33715;DHT22;20043;50.998;4.754;2023-02-26T01:27:28;1.70;99.90
33715;DHT22;20043;50.998;4.754;2023-02-26T01:29:53;1.70;99.90
33715;DHT22;20043;50.998;4.754;2023-02-26T01:35:01;1.70;99.90
33715;DHT22;20043;50.998;4.754;2023-02-26T01:38:00;1.70;99.90
33715;DHT22;20043;50.998;4.754;2023-02-26T01:40:51;1.70;99.90
33715;DHT22;20043;50.998;4.754;2023-02-26T01:46:21;1.80;99.90
33715;DHT22;20043;50.998;4.754;2023-02-26T01:48:55;1.80;99.90
33715;DHT22;20043;50.998;4.754;2023-02-26T01:54:09;1.90;99.90
33715;DHT22;20043;50.998;4.754;2023-02-26T01:56:35;2.00;99.90
33715;DHT22;20043;50.998;4.754;2023-02-26T01:59:03;2.00;99.90
33715;DHT22;20043;50.998;4.754;2023-02-26T02:01:32;2.00;99.90
33715;DHT22;20043;50.998;4.754;2023-02-26T02:03:58;2.00;99.90
33715;DHT22;20043;50.998;4.754;2023-02-26T02:06:25;2.10;99.90
33715;DHT22;20043;50.998;4.754;2023-02-26T02:08:52;2.10;99.90
33715;DHT22;20043;50.998;4.754;2023-02-26T02:11:17;2.20;99.90
33715;DHT22;20043;50.998;4.754;2023-02-26T02:19:32;2.30;99.90
33715;DHT22;20043;50.998;4.754;2023-02-26T02:25:38;2.30;99.90
33715;DHT22;20043;50.998;4.754;2023-02-26T02:31:18;2.10;99.90
33715;DHT22;20043;50.998;4.754;2023-02-26T02:34:10;2.00;99.90
33715;DHT22;20043;50.998;4.754;2023-02-26T02:39:06;2.10;99.90
33715;DHT22;20043;50.998;4.754;2023-02-26T02:41:41;2.10;99.90
33715;DHT22;20043;50.998;4.754;2023-02-26T02:44:12;2.10;99.90
33715;DHT22;20043;50.998;4.754;2023-02-26T02:46:41;2.10;99.90
33715;DHT22;20043;50.998;4.754;2023-02-26T02:49:19;2.10;99.90
33715;DHT22;20043;50.998;4.754;2023-02-26T02:51:51;2.00;99.90
33715;DHT22;20043;50.998;4.754;2023-02-26T02:54:26;1.80;99.90
33715;DHT22;20043;50.998;4.754;2023-02-26T02:56:56;1.80;99.90
33715;DHT22;20043;50.998;4.754;2023-02-26T02:59:45;1.90;99.90
33715;DHT22;20043;50.998;4.754;2023-02-26T03:04:46;2.10;99.90
33715;DHT22;20043;50.998;4.754;2023-02-26T03:07:13;2.10;99.90
33715;DHT22;20043;50.998;4.754;2023-02-26T03:09:38;2.00;99.90
33715;DHT22;20043;50.998;4.754;2023-02-26T03:12:04;2.00;99.90
33715;DHT22;20043;50.998;4.754;2023-02-26T03:14:31;2.20;99.90
33715;DHT22;20043;50.998;4.754;2023-02-26T03:22:46;2.30;99.90
33715;DHT22;20043;50.998;4.754;2023-02-26T03:25:38;2.00;99.90
33715;DHT22;20043;50.998;4.754;2023-02-26T03:28:22;1.80;99.90
33715;DHT22;20043;50.998;4.754;2023-02-26T03:30:57;1.80;99.90
33715;DHT22;20043;50.998;4.754;2023-02-26T03:33:37;1.80;99.90
33715;DHT22;20043;50.998;4.754;2023-02-26T03:36:13;1.70;99.90
33715;DHT22;20043;50.998;4.754;2023-02-26T03:38:57;1.70;99.90
33715;DHT22;20043;50.998;4.754;2023-02-26T03:41:29;1.80;99.90
33715;DHT22;20043;50.998;4.754;2023-02-26T03:44:04;1.90;99.90
33715;DHT22;20043;50.998;4.754;2023-02-26T03:46:34;1.80;99.90
33715;DHT22;20043;50.998;4.754;2023-02-26T03:49:06;1.60;99.90
33715;DHT22;20043;50.998;4.754;2023-02-26T03:51:34;1.60;99.90
33715;DHT22;20043;50.998;4.754;2023-02-26T03:54:34;1.70;99.90
33715;DHT22;20043;50.998;4.754;2023-02-26T03:57:02;1.40;99.90
33715;DHT22;20043;50.998;4.754;2023-02-26T03:59:28;1.40;99.90
33715;DHT22;20043;50.998;4.754;2023-02-26T04:04:27;1.20;99.90
33715;DHT22;20043;50.998;4.754;2023-02-26T04:06:55;1.20;99.90
33715;DHT22;20043;50.998;4.754;2023-02-26T04:09:21;1.30;99.90
33715;DHT22;20043;50.998;4.754;2023-02-26T04:11:49;1.40;99.90
33715;DHT22;20043;50.998;4.754;2023-02-26T04:14:14;1.30;99.90
33715;DHT22;20043;50.998;4.754;2023-02-26T04:16:41;1.30;99.90
33715;DHT22;20043;50.998;4.754;2023-02-26T04:19:07;1.40;99.90
33715;DHT22;20043;50.998;4.754;2023-02-26T04:21:33;1.30;99.90
33715;DHT22;20043;50.998;4.754;2023-02-26T04:23:58;1.40;99.90
33715;DHT22;20043;50.998;4.754;2023-02-26T04:26:24;1.40;99.90
33715;DHT22;20043;50.998;4.754;2023-02-26T04:28:49;1.50;99.90
33715;DHT22;20043;50.998;4.754;2023-02-26T04:31:15;1.50;99.90
33715;DHT22;20043;50.998;4.754;2023-02-26T04:33:40;1.30;99.90
33715;DHT22;20043;50.998;4.754;2023-02-26T04:36:06;1.50;99.90
33715;DHT22;20043;50.998;4.754;2023-02-26T04:38:32;1.50;99.90
33715;DHT22;20043;50.998;4.754;2023-02-26T04:40:57;1.50;99.90
33715;DHT22;20043;50.998;4.754;2023-02-26T04:43:23;1.60;99.90
33715;DHT22;20043;50.998;4.754;2023-02-26T04:45:49;1.80;99.90
33715;DHT22;20043;50.998;4.754;2023-02-26T04:48:15;1.80;99.90
33715;DHT22;20043;50.998;4.754;2023-02-26T04:50:40;1.70;99.90
33715;DHT22;20043;50.998;4.754;2023-02-26T04:53:06;1.60;99.90
33715;DHT22;20043;50.998;4.754;2023-02-26T04:55:33;1.60;99.90
33715;DHT22;20043;50.998;4.754;2023-02-26T04:57:59;1.40;99.90
33715;DHT22;20043;50.998;4.754;2023-02-26T05:00:25;1.50;99.90
33715;DHT22;20043;50.998;4.754;2023-02-26T05:02:50;1.30;99.90
33715;DHT22;20043;50.998;4.754;2023-02-26T05:05:16;1.40;99.90
33715;DHT22;20043;50.998;4.754;2023-02-26T05:07:42;1.60;99.90
33715;DHT22;20043;50.998;4.754;2023-02-26T05:10:08;1.70;99.90
33715;DHT22;20043;50.998;4.754;2023-02-26T05:12:34;1.60;99.90
33715;DHT22;20043;50.998;4.754;2023-02-26T05:15:00;1.50;99.90
33715;DHT22;20043;50.998;4.754;2023-02-26T05:17:26;1.30;99.90
33715;DHT22;20043;50.998;4.754;2023-02-26T05:19:51;1.30;99.90
33715;DHT22;20043;50.998;4.754;2023-02-26T05:22:17;1.40;99.90
33715;DHT22;20043;50.998;4.754;2023-02-26T05:24:42;1.20;99.90
33715;DHT22;20043;50.998;4.754;2023-02-26T05:27:08;1.00;99.90
33715;DHT22;20043;50.998;4.754;2023-02-26T05:29:34;1.10;99.90
33715;DHT22;20043;50.998;4.754;2023-02-26T05:32:02;1.00;99.90
33715;DHT22;20043;50.998;4.754;2023-02-26T05:34:28;1.20;99.90
33715;DHT22;20043;50.998;4.754;2023-02-26T05:36:53;1.20;99.90
33715;DHT22;20043;50.998;4.754;2023-02-26T05:39:19;1.30;99.90
33715;DHT22;20043;50.998;4.754;2023-02-26T05:41:45;1.20;99.90
33715;DHT22;20043;50.998;4.754;2023-02-26T05:44:11;1.30;99.90
33715;DHT22;20043;50.998;4.754;2023-02-26T05:46:37;1.10;99.90
33715;DHT22;20043;50.998;4.754;2023-02-26T05:49:02;1.30;99.90
33715;DHT22;20043;50.998;4.754;2023-02-26T05:51:28;1.20;99.90
33715;DHT22;20043;50.998;4.754;2023-02-26T05:53:54;1.20;99.90
33715;DHT22;20043;50.998;4.754;2023-02-26T05:56:19;1.20;99.90
33715;DHT22;20043;50.998;4.754;2023-02-26T05:58:45;1.10;99.90
33715;DHT22;20043;50.998;4.754;2023-02-26T06:01:11;1.00;99.90
33715;DHT22;20043;50.998;4.754;2023-02-26T06:03:37;0.90;99.90
33715;DHT22;20043;50.998;4.754;2023-02-26T06:06:12;1.00;99.90
33715;DHT22;20043;50.998;4.754;2023-02-26T06:08:38;1.10;99.90
33715;DHT22;20043;50.998;4.754;2023-02-26T06:11:05;1.20;99.90
33715;DHT22;20043;50.998;4.754;2023-02-26T06:13:30;1.20;99.90
33715;DHT22;20043;50.998;4.754;2023-02-26T06:15:56;1.20;99.90
33715;DHT22;20043;50.998;4.754;2023-02-26T06:18:22;1.30;99.90
33715;DHT22;20043;50.998;4.754;2023-02-26T06:20:48;1.50;99.90
33715;DHT22;20043;50.998;4.754;2023-02-26T06:23:13;1.50;99.90
33715;DHT22;20043;50.998;4.754;2023-02-26T06:25:41;1.50;99.90
33715;DHT22;20043;50.998;4.754;2023-02-26T06:28:07;1.40;99.90
33715;DHT22;20043;50.998;4.754;2023-02-26T06:30:34;1.50;99.90
33715;DHT22;20043;50.998;4.754;2023-02-26T06:32:59;1.30;99.90
33715;DHT22;20043;50.998;4.754;2023-02-26T06:35:25;1.30;99.90
33715;DHT22;20043;50.998;4.754;2023-02-26T06:37:52;1.30;99.90
33715;DHT22;20043;50.998;4.754;2023-02-26T06:40:18;1.20;99.90
33715;DHT22;20043;50.998;4.754;2023-02-26T06:42:44;1.10;99.90
33715;DHT22;20043;50.998;4.754;2023-02-26T06:45:10;1.00;99.90
33715;DHT22;20043;50.998;4.754;2023-02-26T06:47:35;1.10;99.90
33715;DHT22;20043;50.998;4.754;2023-02-26T06:50:01;1.20;99.90
33715;DHT22;20043;50.998;4.754;2023-02-26T06:52:28;1.40;99.90
33715;DHT22;20043;50.998;4.754;2023-02-26T06:54:54;1.20;99.90
33715;DHT22;20043;50.998;4.754;2023-02-26T06:57:19;1.30;99.90
33715;DHT22;20043;50.998;4.754;2023-02-26T06:59:45;1.10;99.90
33715;DHT22;20043;50.998;4.754;2023-02-26T07:02:16;1.00;99.90
33715;DHT22;20043;50.998;4.754;2023-02-26T07:04:42;1.00;99.90
33715;DHT22;20043;50.998;4.754;2023-02-26T07:07:07;1.20;99.90
33715;DHT22;20043;50.998;4.754;2023-02-26T07:09:33;1.20;99.90
33715;DHT22;20043;50.998;4.754;2023-02-26T07:11:58;1.30;99.90
33715;DHT22;20043;50.998;4.754;2023-02-26T07:14:24;1.20;99.90
33715;DHT22;20043;50.998;4.754;2023-02-26T07:16:50;1.10;99.90
33715;DHT22;20043;50.998;4.754;2023-02-26T07:19:15;1.00;99.90
33715;DHT22;20043;50.998;4.754;2023-02-26T07:21:41;0.90;99.90
33715;DHT22;20043;50.998;4.754;2023-02-26T07:24:07;1.00;99.90
33715;DHT22;20043;50.998;4.754;2023-02-26T07:26:32;1.20;99.90
33715;DHT22;20043;50.998;4.754;2023-02-26T07:29:02;1.40;99.90
33715;DHT22;20043;50.998;4.754;2023-02-26T07:31:28;1.70;99.90
33715;DHT22;20043;50.998;4.754;2023-02-26T07:33:54;1.80;99.90
33715;DHT22;20043;50.998;4.754;2023-02-26T07:36:19;1.60;99.90
33715;DHT22;20043;50.998;4.754;2023-02-26T07:38:45;1.60;99.90
33715;DHT22;20043;50.998;4.754;2023-02-26T07:41:11;1.60;99.90
33715;DHT22;20043;50.998;4.754;2023-02-26T07:43:36;1.70;99.90
33715;DHT22;20043;50.998;4.754;2023-02-26T07:46:02;1.70;99.90
33715;DHT22;20043;50.998;4.754;2023-02-26T07:48:28;1.80;99.90
33715;DHT22;20043;50.998;4.754;2023-02-26T07:50:54;1.70;99.90
33715;DHT22;20043;50.998;4.754;2023-02-26T07:53:20;1.60;99.90
33715;DHT22;20043;50.998;4.754;2023-02-26T07:55:46;1.50;99.90
33715;DHT22;20043;50.998;4.754;2023-02-26T07:58:11;1.40;99.90
33715;DHT22;20043;50.998;4.754;2023-02-26T08:00:37;1.60;99.90
33715;DHT22;20043;50.998;4.754;2023-02-26T08:03:03;1.50;99.90
33715;DHT22;20043;50.998;4.754;2023-02-26T08:05:28;1.70;99.90
33715;DHT22;20043;50.998;4.754;2023-02-26T08:07:54;1.80;99.90
33715;DHT22;20043;50.998;4.754;2023-02-26T08:10:20;1.60;99.90
33715;DHT22;20043;50.998;4.754;2023-02-26T08:12:45;1.80;99.90
33715;DHT22;20043;50.998;4.754;2023-02-26T08:15:11;1.80;99.90
33715;DHT22;20043;50.998;4.754;2023-02-26T08:17:40;1.90;99.90
33715;DHT22;20043;50.998;4.754;2023-02-26T08:20:07;1.80;99.90
33715;DHT22;20043;50.998;4.754;2023-02-26T08:22:33;1.90;99.90
33715;DHT22;20043;50.998;4.754;2023-02-26T08:24:59;1.80;99.90
33715;DHT22;20043;50.998;4.754;2023-02-26T08:27:24;1.80;99.90
33715;DHT22;20043;50.998;4.754;2023-02-26T08:29:50;1.80;99.90
33715;DHT22;20043;50.998;4.754;2023-02-26T08:32:17;1.90;99.90
33715;DHT22;20043;50.998;4.754;2023-02-26T08:34:44;2.20;99.90
33715;DHT22;20043;50.998;4.754;2023-02-26T08:37:10;2.30;99.90
33715;DHT22;20043;50.998;4.754;2023-02-26T08:39:36;2.40;99.90
33715;DHT22;20043;50.998;4.754;2023-02-26T08:42:05;2.50;99.90
33715;DHT22;20043;50.998;4.754;2023-02-26T08:44:31;2.30;99.90
33715;DHT22;20043;50.998;4.754;2023-02-26T08:46:56;2.20;99.90
33715;DHT22;20043;50.998;4.754;2023-02-26T08:49:22;2.20;99.90
33715;DHT22;20043;50.998;4.754;2023-02-26T08:51:47;2.30;99.90
33715;DHT22;20043;50.998;4.754;2023-02-26T08:54:13;2.20;99.90
33715;DHT22;20043;50.998;4.754;2023-02-26T08:56:39;2.20;99.90
33715;DHT22;20043;50.998;4.754;2023-02-26T08:59:05;2.20;99.90
33715;DHT22;20043;50.998;4.754;2023-02-26T09:01:30;2.30;99.90
33715;DHT22;20043;50.998;4.754;2023-02-26T09:03:56;2.40;99.90
33715;DHT22;20043;50.998;4.754;2023-02-26T09:06:21;2.50;99.90
33715;DHT22;20043;50.998;4.754;2023-02-26T09:08:47;2.50;99.90
33715;DHT22;20043;50.998;4.754;2023-02-26T09:11:14;2.50;99.90
33715;DHT22;20043;50.998;4.754;2023-02-26T09:13:39;2.60;99.90
33715;DHT22;20043;50.998;4.754;2023-02-26T09:16:06;2.70;99.90
33715;DHT22;20043;50.998;4.754;2023-02-26T09:18:32;2.80;99.90
33715;DHT22;20043;50.998;4.754;2023-02-26T09:20:57;2.80;99.90
33715;DHT22;20043;50.998;4.754;2023-02-26T09:23:23;2.80;99.90
33715;DHT22;20043;50.998;4.754;2023-02-26T09:25:55;2.80;99.90
33715;DHT22;20043;50.998;4.754;2023-02-26T09:28:22;2.90;99.90
33715;DHT22;20043;50.998;4.754;2023-02-26T09:30:54;2.90;99.90
33715;DHT22;20043;50.998;4.754;2023-02-26T09:33:21;2.90;99.90
33715;DHT22;20043;50.998;4.754;2023-02-26T09:35:47;3.10;99.90
33715;DHT22;20043;50.998;4.754;2023-02-26T09:38:13;3.30;99.90
33715;DHT22;20043;50.998;4.754;2023-02-26T09:49:04;3.40;99.90
33715;DHT22;20043;50.998;4.754;2023-02-26T09:51:33;3.30;99.90
33715;DHT22;20043;50.998;4.754;2023-02-26T09:54:07;3.40;99.90
33715;DHT22;20043;50.998;4.754;2023-02-26T09:56:34;3.70;99.90
33715;DHT22;20043;50.998;4.754;2023-02-26T09:59:01;3.80;99.90
33715;DHT22;20043;50.998;4.754;2023-02-26T10:04:19;4.00;99.90
33715;DHT22;20043;50.998;4.754;2023-02-26T10:12:26;4.00;99.90
33715;DHT22;20043;50.998;4.754;2023-02-26T10:18:17;3.80;99.90
33715;DHT22;20043;50.998;4.754;2023-02-26T10:21:13;4.00;99.90
33715;DHT22;20043;50.998;4.754;2023-02-26T10:23:44;4.10;99.90
33715;DHT22;20043;50.998;4.754;2023-02-26T10:34:35;4.40;99.90
33715;DHT22;20043;50.998;4.754;2023-02-26T10:39:38;4.40;99.90
33715;DHT22;20043;50.998;4.754;2023-02-26T10:42:12;4.40;99.90
33715;DHT22;20043;50.998;4.754;2023-02-26T10:50:28;4.60;99.90
33715;DHT22;20043;50.998;4.754;2023-02-26T10:52:55;4.70;99.90
33715;DHT22;20043;50.998;4.754;2023-02-26T10:55:28;4.50;99.90
33715;DHT22;20043;50.998;4.754;2023-02-26T10:58:15;4.40;99.90
33715;DHT22;20043;50.998;4.754;2023-02-26T11:00:43;4.40;99.90
33715;DHT22;20043;50.998;4.754;2023-02-26T11:03:18;4.30;99.90
33715;DHT22;20043;50.998;4.754;2023-02-26T11:05:43;4.30;99.90
33715;DHT22;20043;50.998;4.754;2023-02-26T11:08:14;4.30;99.90
33715;DHT22;20043;50.998;4.754;2023-02-26T11:10:57;4.00;99.90
33715;DHT22;20043;50.998;4.754;2023-02-26T11:13:25;3.90;99.90
33715;DHT22;20043;50.998;4.754;2023-02-26T11:15:53;3.70;99.90
33715;DHT22;20043;50.998;4.754;2023-02-26T11:18:47;3.80;99.90
33715;DHT22;20043;50.998;4.754;2023-02-26T11:21:26;4.00;99.90
33715;DHT22;20043;50.998;4.754;2023-02-26T11:24:06;4.10;99.90
33715;DHT22;20043;50.998;4.754;2023-02-26T11:26:36;3.90;99.90
33715;DHT22;20043;50.998;4.754;2023-02-26T11:29:03;3.90;99.90
33715;DHT22;20043;50.998;4.754;2023-02-26T11:31:29;3.90;99.90
33715;DHT22;20043;50.998;4.754;2023-02-26T11:34:02;4.00;99.90
33715;DHT22;20043;50.998;4.754;2023-02-26T11:36:29;4.00;99.90
33715;DHT22;20043;50.998;4.754;2023-02-26T11:39:04;4.00;99.90
33715;DHT22;20043;50.998;4.754;2023-02-26T11:41:38;4.10;99.90
33715;DHT22;20043;50.998;4.754;2023-02-26T11:44:10;4.10;99.90
33715;DHT22;20043;50.998;4.754;2023-02-26T11:46:45;4.10;99.90
33715;DHT22;20043;50.998;4.754;2023-02-26T11:49:16;4.20;99.90
33715;DHT22;20043;50.998;4.754;2023-02-26T11:51:45;4.10;99.90
33715;DHT22;20043;50.998;4.754;2023-02-26T11:54:26;4.30;99.90
33715;DHT22;20043;50.998;4.754;2023-02-26T11:57:04;4.40;99.90
33715;DHT22;20043;50.998;4.754;2023-02-26T11:59:31;4.20;99.90
33715;DHT22;20043;50.998;4.754;2023-02-26T12:02:09;4.20;99.90
33715;DHT22;20043;50.998;4.754;2023-02-26T12:04:39;4.30;99.90
33715;DHT22;20043;50.998;4.754;2023-02-26T12:07:12;4.50;99.90
33715;DHT22;20043;50.998;4.754;2023-02-26T12:09:38;4.40;99.90
33715;DHT22;20043;50.998;4.754;2023-02-26T12:36:14;5.00;99.90
33715;DHT22;20043;50.998;4.754;2023-02-26T12:38:51;4.80;99.90
33715;DHT22;20043;50.998;4.754;2023-02-26T12:50:02;5.00;99.90
33715;DHT22;20043;50.998;4.754;2023-02-26T12:53:02;5.00;99.90
33715;DHT22;20043;50.998;4.754;2023-02-26T12:55:50;5.20;99.90
33715;DHT22;20043;50.998;4.754;2023-02-26T12:58:35;5.30;99.90
33715;DHT22;20043;50.998;4.754;2023-02-26T13:03:44;5.40;99.90
33715;DHT22;20043;50.998;4.754;2023-02-26T13:12:16;5.70;99.90
33715;DHT22;20043;50.998;4.754;2023-02-26T13:17:56;5.50;99.90
33715;DHT22;20043;50.998;4.754;2023-02-26T13:20:27;5.20;99.90
33715;DHT22;20043;50.998;4.754;2023-02-26T13:23:02;5.10;99.90
33715;DHT22;20043;50.998;4.754;2023-02-26T13:25:43;5.20;99.90
33715;DHT22;20043;50.998;4.754;2023-02-26T13:28:42;5.50;99.90
33715;DHT22;20043;50.998;4.754;2023-02-26T13:34:03;6.20;99.90
33715;DHT22;20043;50.998;4.754;2023-02-26T13:36:30;5.90;99.90
33715;DHT22;20043;50.998;4.754;2023-02-26T13:39:07;5.80;99.90
33715;DHT22;20043;50.998;4.754;2023-02-26T13:42:09;5.60;99.90
33715;DHT22;20043;50.998;4.754;2023-02-26T13:44:41;5.40;99.90
33715;DHT22;20043;50.998;4.754;2023-02-26T13:52:31;5.60;99.90
33715;DHT22;20043;50.998;4.754;2023-02-26T13:54:57;5.60;99.90
33715;DHT22;20043;50.998;4.754;2023-02-26T14:00:27;5.80;99.90
33715;DHT22;20043;50.998;4.754;2023-02-26T14:03:09;5.80;99.20
33715;DHT22;20043;50.998;4.754;2023-02-26T14:05:52;5.60;99.90
33715;DHT22;20043;50.998;4.754;2023-02-26T14:08:26;5.80;99.90
33715;DHT22;20043;50.998;4.754;2023-02-26T14:10:56;5.80;99.30
33715;DHT22;20043;50.998;4.754;2023-02-26T14:13:35;5.70;99.50
33715;DHT22;20043;50.998;4.754;2023-02-26T14:16:20;5.80;99.80
33715;DHT22;20043;50.998;4.754;2023-02-26T14:23:55;5.90;99.90
33715;DHT22;20043;50.998;4.754;2023-02-26T14:26:22;6.00;99.90
33715;DHT22;20043;50.998;4.754;2023-02-26T14:34:19;6.00;99.90
33715;DHT22;20043;50.998;4.754;2023-02-26T14:36:51;6.10;99.90
33715;DHT22;20043;50.998;4.754;2023-02-26T14:39:24;6.10;98.80
33715;DHT22;20043;50.998;4.754;2023-02-26T14:41:56;6.10;99.30
33715;DHT22;20043;50.998;4.754;2023-02-26T14:44:26;6.10;99.40
33715;DHT22;20043;50.998;4.754;2023-02-26T14:46:52;6.20;99.40
33715;DHT22;20043;50.998;4.754;2023-02-26T14:49:39;6.00;98.60
33715;DHT22;20043;50.998;4.754;2023-02-26T14:57:53;6.20;99.40
33715;DHT22;20043;50.998;4.754;2023-02-26T15:06:22;6.20;99.40
33715;DHT22;20043;50.998;4.754;2023-02-26T15:14:25;6.30;99.90
33715;DHT22;20043;50.998;4.754;2023-02-26T15:19:28;6.50;99.90
33715;DHT22;20043;50.998;4.754;2023-02-26T15:24:55;6.30;99.90
33715;DHT22;20043;50.998;4.754;2023-02-26T15:27:21;6.50;99.90
33715;DHT22;20043;50.998;4.754;2023-02-26T15:29:48;6.40;99.90
33715;DHT22;20043;50.998;4.754;2023-02-26T15:32:27;6.00;99.90
33715;DHT22;20043;50.998;4.754;2023-02-26T15:35:02;5.90;99.90
33715;DHT22;20043;50.998;4.754;2023-02-26T15:37:29;6.00;99.90
33715;DHT22;20043;50.998;4.754;2023-02-26T15:40:00;6.00;99.90
33715;DHT22;20043;50.998;4.754;2023-02-26T15:42:32;5.80;99.90
33715;DHT22;20043;50.998;4.754;2023-02-26T15:45:00;5.90;99.90
33715;DHT22;20043;50.998;4.754;2023-02-26T15:47:27;5.80;99.90
33715;DHT22;20043;50.998;4.754;2023-02-26T15:49:54;5.80;99.90
33715;DHT22;20043;50.998;4.754;2023-02-26T15:52:22;5.70;99.90
33715;DHT22;20043;50.998;4.754;2023-02-26T15:55:02;5.70;99.90
33715;DHT22;20043;50.998;4.754;2023-02-26T15:57:29;5.70;99.90
33715;DHT22;20043;50.998;4.754;2023-02-26T16:00:08;5.60;99.90
33715;DHT22;20043;50.998;4.754;2023-02-26T16:02:35;5.60;99.90
33715;DHT22;20043;50.998;4.754;2023-02-26T16:05:02;5.80;99.90
33715;DHT22;20043;50.998;4.754;2023-02-26T16:07:28;5.70;99.90
33715;DHT22;20043;50.998;4.754;2023-02-26T16:09:55;5.80;99.90
33715;DHT22;20043;50.998;4.754;2023-02-26T16:12:33;5.80;99.90
33715;DHT22;20043;50.998;4.754;2023-02-26T16:15:02;5.80;99.90
33715;DHT22;20043;50.998;4.754;2023-02-26T16:17:34;5.80;99.90
33715;DHT22;20043;50.998;4.754;2023-02-26T16:20:09;5.70;99.90
33715;DHT22;20043;50.998;4.754;2023-02-26T16:22:40;5.70;99.90
33715;DHT22;20043;50.998;4.754;2023-02-26T16:25:27;5.60;99.90
33715;DHT22;20043;50.998;4.754;2023-02-26T16:28:00;5.70;99.90
33715;DHT22;20043;50.998;4.754;2023-02-26T16:30:31;5.70;99.90
33715;DHT22;20043;50.998;4.754;2023-02-26T16:32:58;5.60;99.90
33715;DHT22;20043;50.998;4.754;2023-02-26T16:35:30;5.60;99.90
33715;DHT22;20043;50.998;4.754;2023-02-26T16:37:59;5.60;99.90
33715;DHT22;20043;50.998;4.754;2023-02-26T16:40:32;5.40;99.90
33715;DHT22;20043;50.998;4.754;2023-02-26T16:43:03;5.40;99.90
33715;DHT22;20043;50.998;4.754;2023-02-26T16:48:10;5.50;99.90
33715;DHT22;20043;50.998;4.754;2023-02-26T16:50:37;5.50;99.90
33715;DHT22;20043;50.998;4.754;2023-02-26T16:53:12;5.50;99.90
33715;DHT22;20043;50.998;4.754;2023-02-26T16:55:39;5.60;99.90
33715;DHT22;20043;50.998;4.754;2023-02-26T16:58:09;5.60;99.90
33715;DHT22;20043;50.998;4.754;2023-02-26T17:00:37;5.50;99.90
33715;DHT22;20043;50.998;4.754;2023-02-26T17:03:14;5.40;99.90
33715;DHT22;20043;50.998;4.754;2023-02-26T17:05:51;5.20;99.90
33715;DHT22;20043;50.998;4.754;2023-02-26T17:08:19;5.10;99.90
33715;DHT22;20043;50.998;4.754;2023-02-26T17:10:54;5.00;99.90
33715;DHT22;20043;50.998;4.754;2023-02-26T17:13:28;5.10;99.90
33715;DHT22;20043;50.998;4.754;2023-02-26T17:15:58;5.20;99.90
33715;DHT22;20043;50.998;4.754;2023-02-26T17:18:24;5.30;99.90
33715;DHT22;20043;50.998;4.754;2023-02-26T17:20:49;5.20;99.90
33715;DHT22;20043;50.998;4.754;2023-02-26T17:23:16;5.40;99.90
33715;DHT22;20043;50.998;4.754;2023-02-26T17:25:48;5.40;99.90
33715;DHT22;20043;50.998;4.754;2023-02-26T17:28:21;5.20;99.90
33715;DHT22;20043;50.998;4.754;2023-02-26T17:30:47;5.20;99.90
33715;DHT22;20043;50.998;4.754;2023-02-26T17:33:13;5.30;99.90
33715;DHT22;20043;50.998;4.754;2023-02-26T17:35:39;5.20;99.90
33715;DHT22;20043;50.998;4.754;2023-02-26T17:38:05;5.20;99.90
33715;DHT22;20043;50.998;4.754;2023-02-26T17:40:35;5.20;99.90
33715;DHT22;20043;50.998;4.754;2023-02-26T17:43:01;5.20;99.90
33715;DHT22;20043;50.998;4.754;2023-02-26T17:45:29;4.90;99.90
33715;DHT22;20043;50.998;4.754;2023-02-26T17:47:55;4.90;99.90
33715;DHT22;20043;50.998;4.754;2023-02-26T17:53:03;5.00;99.90
33715;DHT22;20043;50.998;4.754;2023-02-26T17:55:30;4.90;99.90
33715;DHT22;20043;50.998;4.754;2023-02-26T17:57:56;4.90;99.90
33715;DHT22;20043;50.998;4.754;2023-02-26T18:00:22;5.10;99.90
33715;DHT22;20043;50.998;4.754;2023-02-26T18:02:48;4.90;99.90
33715;DHT22;20043;50.998;4.754;2023-02-26T18:05:16;5.00;99.90
33715;DHT22;20043;50.998;4.754;2023-02-26T18:07:41;5.00;99.90
33715;DHT22;20043;50.998;4.754;2023-02-26T18:10:14;5.20;99.90
33715;DHT22;20043;50.998;4.754;2023-02-26T18:12:40;5.10;99.90
33715;DHT22;20043;50.998;4.754;2023-02-26T18:15:07;4.90;99.90
33715;DHT22;20043;50.998;4.754;2023-02-26T18:17:34;5.00;99.90
33715;DHT22;20043;50.998;4.754;2023-02-26T18:20:00;4.90;99.90
33715;DHT22;20043;50.998;4.754;2023-02-26T18:22:25;4.80;99.90
33715;DHT22;20043;50.998;4.754;2023-02-26T18:24:53;4.90;99.90
33715;DHT22;20043;50.998;4.754;2023-02-26T18:27:21;4.70;99.90
33715;DHT22;20043;50.998;4.754;2023-02-26T18:29:47;4.70;99.90
33715;DHT22;20043;50.998;4.754;2023-02-26T18:32:18;4.60;99.90
33715;DHT22;20043;50.998;4.754;2023-02-26T18:34:43;4.70;99.90
33715;DHT22;20043;50.998;4.754;2023-02-26T18:37:12;4.80;99.90
33715;DHT22;20043;50.998;4.754;2023-02-26T18:39:39;5.00;99.90
33715;DHT22;20043;50.998;4.754;2023-02-26T18:42:04;5.10;99.90
33715;DHT22;20043;50.998;4.754;2023-02-26T18:44:30;5.20;99.90
33715;DHT22;20043;50.998;4.754;2023-02-26T18:47:00;5.30;99.90
33715;DHT22;20043;50.998;4.754;2023-02-26T18:49:26;5.10;99.90
33715;DHT22;20043;50.998;4.754;2023-02-26T18:51:52;5.00;99.90
33715;DHT22;20043;50.998;4.754;2023-02-26T18:54:18;4.90;99.90
33715;DHT22;20043;50.998;4.754;2023-02-26T18:56:44;4.70;99.90
33715;DHT22;20043;50.998;4.754;2023-02-26T18:59:11;4.60;99.90
33715;DHT22;20043;50.998;4.754;2023-02-26T19:01:37;4.40;99.90